Time;durP1;ratioP1;P1;durP2;ratioP2;P2;SDS_P1;SDS_P2;PMS_P1;PMS_P2;Temp;Humidity;BMP_temperature;BMP_pressure;BME280_temperature;BME280_humidity;BME280_pressure;Samples;Min_cycle;Max_cycle;Signal;HPM_P1;HPM_P2
2023/01/29 00:03:01;;;;;;;42.80;21.98;;;;;;;-1.38;66.90;101801.47;10195234;29;20107;-77
2023/01/29 00:08:05;;;;;;;39.58;18.15;;;;;;;-1.08;66.31;101797.69;10191659;29;20410;-77
2023/01/29 00:13:07;;;;;;;41.55;20.45;;;;;;;-1.00;65.88;101782.66;10185184;29;20412;-77
2023/01/29 00:18:12;;;;;;;39.38;19.73;;;;;;;-1.00;65.16;101782.66;10185937;29;20400;-77
2023/01/29 00:23:15;;;;;;;32.53;13.68;;;;;;;-1.41;65.75;101783.06;10187591;29;20067;-76
2023/01/29 00:28:18;;;;;;;38.00;17.08;;;;;;;-1.30;65.91;101782.97;10196754;29;20158;-77
2023/01/29 00:33:22;;;;;;;35.67;19.17;;;;;;;-1.27;66.00;101769.75;10188681;29;20119;-75
2023/01/29 00:38:25;;;;;;;43.28;18.38;;;;;;;-1.08;65.29;101789.75;10177192;29;20077;-75
2023/01/29 00:48:49;;;;;;;39.00;18.58;;;;;;;-1.08;65.32;101779.22;10189442;29;20134;-74
2023/01/29 00:53:53;;;;;;;22.10;10.40;;;;;;;-1.22;65.56;101767.94;10211174;29;20491;-75
2023/01/29 00:58:57;;;;;;;36.92;17.52;;;;;;;-1.10;65.45;101766.94;10178371;29;20044;-74
2023/01/29 01:04:02;;;;;;;39.58;18.63;;;;;;;-0.99;65.36;101762.41;10188007;29;20071;-75
2023/01/29 01:14:25;;;;;;;43.30;19.65;;;;;;;-0.75;64.54;101763.91;10182513;29;20132;-75
2023/01/29 01:19:29;;;;;;;38.95;19.35;;;;;;;-0.69;64.32;101749.75;10196546;29;20191;-75
2023/01/29 01:24:32;;;;;;;42.30;18.75;;;;;;;-0.93;64.59;101728.06;10184594;29;20077;-75
2023/01/29 01:29:35;;;;;;;41.67;18.85;;;;;;;-1.22;65.39;101723.13;10210156;28;20043;-74
2023/01/29 01:34:39;;;;;;;46.03;21.15;;;;;;;-1.15;65.95;101708.06;10197501;29;20063;-76
2023/01/29 01:39:42;;;;;;;44.97;20.52;;;;;;;-1.21;65.81;101714.28;10203533;29;20060;-75
2023/01/29 01:44:57;;;;;;;47.83;19.50;;;;;;;-1.21;65.73;101712.56;10192703;29;20148;-75
2023/01/29 01:50:08;;;;;;;50.78;21.63;;;;;;;-0.97;65.09;101723.69;10196038;29;20499;-76
2023/01/29 01:55:13;;;;;;;53.00;21.40;;;;;;;-0.96;64.64;101734.25;10213542;29;20087;-75
2023/01/29 02:00:19;;;;;;;49.78;20.08;;;;;;;-0.85;64.39;101741.13;10211638;29;20060;-75
2023/01/29 02:10:47;;;;;;;52.72;24.13;;;;;;;-0.98;64.98;101736.03;10195768;29;20142;-75
2023/01/29 02:15:50;;;;;;;51.92;23.95;;;;;;;-0.83;64.87;101747.28;10174021;29;20048;-75
2023/01/29 02:21:14;;;;;;;53.80;24.02;;;;;;;-1.04;65.02;101737.84;10175372;29;20048;-76
2023/01/29 02:26:31;;;;;;;53.97;23.73;;;;;;;-1.18;65.55;101753.81;10202277;29;20487;-75
2023/01/29 02:31:43;;;;;;;32.70;16.08;;;;;;;-1.22;65.97;101752.97;10193849;29;20076;-75
2023/01/29 02:36:51;;;;;;;54.03;24.00;;;;;;;-1.18;66.40;101752.09;10182971;29;20480;-77
2023/01/29 02:42:01;;;;;;;56.85;22.95;;;;;;;-1.18;66.22;101770.53;10190861;29;20135;-76
2023/01/29 02:47:13;;;;;;;56.17;23.88;;;;;;;-1.20;66.28;101771.44;10181609;29;20130;-74
2023/01/29 02:52:19;;;;;;;58.83;25.90;;;;;;;-1.11;65.86;101762.56;10192798;29;20118;-75
2023/01/29 02:57:27;;;;;;;44.95;19.13;;;;;;;-1.33;66.45;101757.50;10187920;29;20119;-76
2023/01/29 03:02:38;;;;;;;50.03;21.63;;;;;;;-1.10;65.70;101756.38;10174289;29;20056;-76
2023/01/29 03:07:48;;;;;;;64.68;28.80;;;;;;;-1.24;66.44;101749.47;10181851;29;20127;-76
2023/01/29 03:13:04;;;;;;;57.70;21.73;;;;;;;-1.50;67.31;101746.25;10187428;29;20044;-77
2023/01/29 03:18:11;;;;;;;61.15;27.05;;;;;;;-1.33;67.25;101748.72;10193705;29;20043;-75
2023/01/29 03:23:22;;;;;;;61.80;26.10;;;;;;;-1.35;67.24;101747.84;10211212;28;20044;-76
2023/01/29 03:33:53;;;;;;;54.83;22.15;;;;;;;-1.28;67.16;101731.09;10207379;28;20098;-75
2023/01/29 03:38:56;;;;;;;48.08;20.10;;;;;;;-1.37;67.29;101728.53;10200528;29;20054;-75
2023/01/29 03:44:10;;;;;;;45.15;18.25;;;;;;;-1.36;66.92;101727.66;10206926;29;20427;-74
2023/01/29 03:49:23;;;;;;;61.50;26.02;;;;;;;-1.29;67.23;101710.88;10198410;29;20060;-76
2023/01/29 03:54:34;;;;;;;49.70;21.20;;;;;;;-1.36;67.41;101709.22;10187505;29;20511;-76
2023/01/29 03:59:43;;;;;;;64.07;26.60;;;;;;;-1.23;67.59;101703.78;10200115;29;20127;-76
2023/01/29 04:05:14;;;;;;;60.25;25.02;;;;;;;-1.36;67.92;101711.84;10171000;29;20096;-76
2023/01/29 04:10:31;;;;;;;62.63;27.13;;;;;;;-1.24;67.25;101699.38;10180190;29;20099;-77
2023/01/29 04:15:37;;;;;;;62.75;26.38;;;;;;;-1.20;67.39;101685.28;10207120;29;20068;-76
2023/01/29 04:20:43;;;;;;;61.33;28.38;;;;;;;-1.22;67.19;101676.50;10215540;29;20506;-76
2023/01/29 04:25:51;;;;;;;51.42;23.58;;;;;;;-1.49;68.14;101655.72;10221748;28;20532;-76
2023/01/29 04:30:58;;;;;;;60.58;26.15;;;;;;;-1.37;68.13;101631.88;10212653;29;20091;-76
2023/01/29 04:36:17;;;;;;;50.80;21.80;;;;;;;-1.54;68.34;101626.78;10184763;29;20052;-76
2023/01/29 04:41:24;;;;;;;49.42;21.48;;;;;;;-1.80;68.93;101623.56;10198259;29;20040;-76
2023/01/29 04:46:34;;;;;;;52.05;21.50;;;;;;;-1.75;69.70;101608.59;10206371;29;20582;-76
2023/01/29 04:51:47;;;;;;;60.10;25.02;;;;;;;-1.49;69.09;101600.38;10197664;29;20036;-76
2023/01/29 04:56:58;;;;;;;58.40;24.88;;;;;;;-1.35;68.67;101602.84;10191271;29;20083;-76
2023/01/29 05:02:02;;;;;;;68.50;27.52;;;;;;;-1.42;68.93;101612.59;10200884;29;20036;-76
2023/01/29 05:07:09;;;;;;;60.45;25.02;;;;;;;-1.37;68.76;101613.44;10210974;29;20044;-76
2023/01/29 05:12:15;;;;;;;66.85;28.35;;;;;;;-1.41;68.93;101615.22;10205466;29;20094;-75
2023/01/29 05:17:20;;;;;;;58.60;21.42;;;;;;;-1.77;70.15;101613.84;10195831;29;20127;-76
2023/01/29 05:22:25;;;;;;;51.08;21.50;;;;;;;-1.87;70.54;101620.97;10185552;29;20507;-76
2023/01/29 05:32:53;;;;;;;51.28;22.52;;;;;;;-1.73;69.82;101644.53;10202886;29;20074;-76
2023/01/29 05:37:58;;;;;;;68.88;25.98;;;;;;;-1.83;70.47;101637.63;10194901;29;20123;-76
2023/01/29 05:43:01;;;;;;;61.63;25.25;;;;;;;-1.62;70.83;101626.00;10176214;29;20500;-75
2023/01/29 05:48:04;;;;;;;60.35;23.83;;;;;;;-1.26;69.05;101631.72;10177415;29;20135;-75
2023/01/29 05:53:09;;;;;;;69.68;27.35;;;;;;;-1.49;69.96;101640.78;10186526;29;20412;-75
2023/01/29 05:58:11;;;;;;;59.55;25.20;;;;;;;-1.74;70.39;101663.88;10194959;29;20123;-75
2023/01/29 06:03:15;;;;;;;65.25;27.52;;;;;;;-1.89;70.73;101656.16;10204485;29;20507;-76
2023/01/29 06:08:19;;;;;;;50.40;22.65;;;;;;;-1.52;70.42;101655.75;10175033;29;20050;-76
2023/01/29 06:13:22;;;;;;;68.18;29.05;;;;;;;-1.41;70.28;101648.63;10198626;29;20077;-76
2023/01/29 06:18:25;;;;;;;67.00;26.50;;;;;;;-1.26;70.07;101655.47;10193534;29;20044;-77
2023/01/29 06:23:30;;;;;;;69.43;29.55;;;;;;;-1.31;69.96;101644.13;10184630;29;20127;-76
2023/01/29 06:28:33;;;;;;;66.35;28.13;;;;;;;-1.42;70.50;101674.09;10174265;29;20060;-76
2023/01/29 06:33:35;;;;;;;65.50;27.60;;;;;;;-1.30;70.72;101670.44;10191261;29;20040;-75
2023/01/29 06:38:39;;;;;;;61.35;26.42;;;;;;;-1.23;70.67;101680.06;10195275;29;20088;-75
2023/01/29 06:43:44;;;;;;;70.32;28.75;;;;;;;-1.26;71.27;101668.66;10185458;29;20467;-76
2023/01/29 06:48:47;;;;;;;73.75;31.70;;;;;;;-1.29;71.73;101664.31;10174111;29;20052;-75
2023/01/29 06:53:53;;;;;;;73.57;30.73;;;;;;;-1.55;73.15;101656.66;10180423;29;20052;-77
2023/01/29 06:58:56;;;;;;;72.13;28.27;;;;;;;-1.70;73.03;101644.53;10191903;29;20060;-76
2023/01/29 07:03:58;;;;;;;53.88;24.00;;;;;;;-1.69;73.56;101651.53;10200949;29;20078;-75
2023/01/29 07:09:03;;;;;;;73.72;29.45;;;;;;;-1.58;73.34;101655.84;10209891;29;20123;-75
2023/01/29 07:14:06;;;;;;;45.17;19.70;;;;;;;-1.70;73.18;101665.63;10173453;29;20559;-77
2023/01/29 07:19:09;;;;;;;64.45;25.05;;;;;;;-1.92;73.79;101671.94;10186490;29;20075;-76
2023/01/29 07:24:13;;;;;;;49.83;18.88;;;;;;;-1.76;73.64;101663.00;10185764;29;20444;-75
2023/01/29 07:29:16;;;;;;;49.25;22.08;;;;;;;-2.00;73.68;101650.97;10175313;29;20080;-76
2023/01/29 07:34:19;;;;;;;66.78;26.48;;;;;;;-1.83;73.54;101648.19;10184182;29;20480;-77
2023/01/29 07:39:23;;;;;;;65.32;23.70;;;;;;;-1.55;72.54;101646.13;10194430;29;20507;-74
2023/01/29 07:44:26;;;;;;;63.78;28.27;;;;;;;-1.49;71.80;101658.38;10198379;29;20078;-76
2023/01/29 07:49:29;;;;;;;81.28;32.33;;;;;;;-1.15;70.88;101639.50;10208102;29;20076;-75
2023/01/29 07:54:33;;;;;;;74.40;31.50;;;;;;;-1.42;71.27;101610.84;10174643;29;20092;-75
2023/01/29 07:59:36;;;;;;;76.70;33.53;;;;;;;-1.27;70.48;101614.19;10213035;29;20072;-76
2023/01/29 08:04:38;;;;;;;77.07;32.00;;;;;;;-1.02;70.35;101633.19;10203482;29;20056;-76
2023/01/29 08:09:43;;;;;;;76.57;32.45;;;;;;;-1.35;70.96;101609.00;10177083;29;20500;-75
2023/01/29 08:14:45;;;;;;;68.43;27.38;;;;;;;-1.23;70.52;101585.13;10200551;29;20103;-77
2023/01/29 08:19:48;;;;;;;52.33;22.70;;;;;;;-1.16;70.57;101578.00;10194724;29;20052;-76
2023/01/29 08:24:52;;;;;;;60.67;24.00;;;;;;;-1.64;71.74;101575.94;10186091;29;20032;-76
2023/01/29 08:30:11;;;;;;;59.60;24.00;;;;;;;-1.50;71.50;101572.28;10206534;29;20138;-75
2023/01/29 08:35:14;;;;;;;71.97;31.73;;;;;;;-1.15;70.15;101586.78;10203647;29;20044;-75
2023/01/29 08:40:18;;;;;;;72.35;30.98;;;;;;;-0.95;69.47;101588.25;10207021;29;20427;-77
2023/01/29 08:45:21;;;;;;;73.40;29.73;;;;;;;-1.14;70.05;101596.44;10208120;29;20051;-76
2023/01/29 08:50:24;;;;;;;72.05;30.55;;;;;;;-0.88;69.16;101588.16;10186194;29;20048;-76
2023/01/29 08:55:29;;;;;;;64.45;25.33;;;;;;;-1.14;69.17;101572.72;10210271;29;20056;-76
2023/01/29 09:00:32;;;;;;;50.47;20.80;;;;;;;-0.81;68.72;101572.22;10206695;29;20048;-76
2023/01/29 09:05:36;;;;;;;68.85;28.55;;;;;;;-0.96;68.83;101572.44;10208235;29;20082;-76
2023/01/29 09:10:40;;;;;;;64.60;25.10;;;;;;;-0.67;67.46;101574.66;10211368;29;20051;-76
2023/01/29 09:15:43;;;;;;;64.32;26.90;;;;;;;-0.53;68.12;101566.50;10183798;29;20083;-77
2023/01/29 09:20:46;;;;;;;44.25;17.67;;;;;;;-0.79;67.51;101573.06;10198929;29;20122;-76
2023/01/29 09:25:50;;;;;;;60.95;24.60;;;;;;;-0.88;69.43;101561.78;10183089;29;20044;-76
2023/01/29 09:30:53;;;;;;;51.13;19.15;;;;;;;-0.93;69.17;101559.22;10205099;29;20496;-76
2023/01/29 09:35:56;;;;;;;56.03;24.38;;;;;;;-0.86;69.07;101579.31;10193384;29;20118;-76
2023/01/29 09:41:09;;;;;;;43.67;15.20;;;;;;;-0.94;69.83;101573.28;10217777;29;20571;-76
2023/01/29 09:46:19;;;;;;;42.58;19.45;;;;;;;-0.84;68.87;101580.19;10216276;29;20052;-76
2023/01/29 09:51:28;;;;;;;69.95;28.48;;;;;;;-0.51;68.00;101572.66;10210439;29;20071;-76
2023/01/29 09:56:32;;;;;;;49.97;21.38;;;;;;;-0.63;67.95;101567.53;10201489;29;20044;-76
2023/01/29 10:01:44;;;;;;;67.45;25.88;;;;;;;-0.65;68.56;101557.03;10210057;29;20130;-76
2023/01/29 10:07:05;;;;;;;61.25;26.08;;;;;;;-0.48;68.20;101540.91;10211019;29;20091;-77
2023/01/29 10:12:43;;;;;;;73.17;31.87;;;;;;;-0.51;68.44;101520.72;10205064;29;20040;-76
2023/01/29 10:18:00;;;;;;;68.95;29.58;;;;;;;-0.51;67.85;101517.22;10188334;29;20430;-77
2023/01/29 10:23:14;;;;;;;78.32;29.23;;;;;;;-0.22;67.78;101503.50;10188886;29;20135;-76
2023/01/29 10:28:24;;;;;;;56.20;22.13;;;;;;;0.22;66.23;101500.88;10174945;29;20566;-76
2023/01/29 10:33:32;;;;;;;65.93;27.10;;;;;;;0.28;66.61;101514.00;10204418;29;20123;-77
2023/01/29 10:38:55;;;;;;;56.22;24.40;;;;;;;-0.25;67.90;101506.19;10202819;29;20051;-76
2023/01/29 10:44:11;;;;;;;64.22;27.30;;;;;;;-0.31;67.77;101499.22;10209600;29;20050;-76
2023/01/29 10:49:29;;;;;;;67.65;29.73;;;;;;;-0.54;69.20;101490.88;10191307;29;20067;-76
2023/01/29 10:54:49;;;;;;;54.63;22.02;;;;;;;-0.23;67.77;101501.75;10207789;29;20134;-75
2023/01/29 11:00:06;;;;;;;60.55;27.25;;;;;;;-0.35;68.14;101489.66;10179719;29;20062;-76
2023/01/29 11:05:19;;;;;;;59.10;26.00;;;;;;;-0.49;68.46;101483.75;10191820;29;20044;-75
2023/01/29 11:10:24;;;;;;;58.42;26.10;;;;;;;-0.44;68.64;101475.72;10173431;29;20052;-76
2023/01/29 11:15:32;;;;;;;69.93;30.25;;;;;;;-0.03;68.18;101451.16;10192668;29;20040;-75
2023/01/29 11:20:35;;;;;;;39.83;16.20;;;;;;;-0.41;67.88;101454.53;10180522;29;20122;-76
2023/01/29 11:25:38;;;;;;;45.55;20.05;;;;;;;-0.36;68.88;101450.06;10191566;29;20127;-75
2023/01/29 11:30:42;;;;;;;49.10;23.08;;;;;;;-0.15;67.98;101444.38;10185635;29;20723;-77
2023/01/29 11:35:46;;;;;;;62.28;26.15;;;;;;;0.01;68.38;101434.38;10186910;29;20052;-74
2023/01/29 11:40:49;;;;;;;69.22;27.98;;;;;;;0.05;68.37;101435.16;10176605;29;20122;-76
2023/01/29 11:45:55;;;;;;;45.13;21.05;;;;;;;0.18;67.21;101434.00;10187227;29;20460;-75
2023/01/29 11:51:00;;;;;;;63.65;29.90;;;;;;;0.35;66.92;101413.38;10186654;29;20055;-75
2023/01/29 11:56:15;;;;;;;59.10;26.13;;;;;;;0.47;66.90;101398.16;10176523;29;20115;-75
2023/01/29 12:01:30;;;;;;;57.03;23.60;;;;;;;0.50;66.80;101391.00;10171473;29;20099;-77
2023/01/29 12:06:35;;;;;;;65.75;25.30;;;;;;;0.56;66.60;101388.22;10188667;29;20048;-75
2023/01/29 12:11:38;;;;;;;47.53;19.35;;;;;;;0.24;67.09;101393.38;10195333;29;20063;-77
2023/01/29 12:16:49;;;;;;;55.65;25.80;;;;;;;0.45;67.14;101366.44;10202813;29;20385;-75
2023/01/29 12:21:57;;;;;;;62.17;28.00;;;;;;;0.61;66.86;101362.53;10193904;29;20123;-75
2023/01/29 12:27:07;;;;;;;60.25;26.25;;;;;;;0.91;66.51;101346.81;10195743;29;20083;-76
2023/01/29 12:32:27;;;;;;;56.25;25.05;;;;;;;0.94;66.19;101336.16;10185580;29;20123;-77
2023/01/29 12:37:39;;;;;;;38.72;17.08;;;;;;;0.82;66.07;101333.81;10175060;29;20044;-76
2023/01/29 12:42:46;;;;;;;51.17;23.48;;;;;;;1.00;65.67;101322.75;10176411;29;20044;-77
2023/01/29 12:47:54;;;;;;;48.78;24.05;;;;;;;1.04;65.59;101311.19;10187091;29;20087;-75
2023/01/29 12:53:00;;;;;;;56.45;25.38;;;;;;;0.97;66.29;101304.31;10184648;29;20128;-76
2023/01/29 12:58:05;;;;;;;52.40;25.25;;;;;;;0.97;66.75;101304.31;10174989;29;20047;-75
2023/01/29 13:03:19;;;;;;;40.72;18.33;;;;;;;0.46;67.61;101302.09;10202637;29;20064;-78
2023/01/29 13:08:27;;;;;;;48.92;23.45;;;;;;;0.52;67.65;101301.06;10190230;29;20060;-75
2023/01/29 13:13:33;;;;;;;38.00;13.35;;;;;;;0.45;67.28;101291.56;10205549;29;20050;-75
2023/01/29 13:18:50;;;;;;;37.90;17.85;;;;;;;0.33;67.78;101283.03;10196626;29;20044;-76
2023/01/29 13:23:56;;;;;;;27.55;11.68;;;;;;;0.29;68.15;101276.06;10200336;29;20111;-76
2023/01/29 13:29:00;;;;;;;42.85;17.58;;;;;;;0.39;68.06;101271.44;10211504;29;20099;-77
2023/01/29 13:34:12;;;;;;;59.22;22.40;;;;;;;0.55;67.96;101261.31;10212428;29;20726;-77
2023/01/29 13:39:22;;;;;;;53.05;23.65;;;;;;;0.60;67.86;101270.00;10207696;29;20048;-77
2023/01/29 13:44:28;;;;;;;39.05;17.10;;;;;;;0.49;67.47;101264.13;10177772;29;20488;-77
2023/01/29 13:49:37;;;;;;;52.55;21.02;;;;;;;0.51;66.85;101268.47;10182636;29;20044;-77
2023/01/29 13:54:39;;;;;;;41.42;19.92;;;;;;;0.24;67.84;101248.00;10200052;29;20072;-75
2023/01/29 13:59:51;;;;;;;50.75;21.67;;;;;;;0.48;67.97;101242.13;10214686;29;20081;-76
2023/01/29 14:05:28;;;;;;;50.15;20.17;;;;;;;0.32;68.62;101240.75;10197956;29;20075;-76
2023/01/29 14:10:34;;;;;;;36.58;16.08;;;;;;;0.32;68.66;101246.06;10197532;29;20048;-76
2023/01/29 14:15:38;;;;;;;51.90;23.05;;;;;;;0.30;68.38;101248.75;10200670;29;20036;-75
2023/01/29 14:20:50;;;;;;;56.05;24.15;;;;;;;0.92;66.54;101231.28;10181783;29;20389;-76
2023/01/29 14:25:54;;;;;;;;;;;;;;;0.39;67.88;101235.28;10176145;29;20092;-76
2023/01/29 14:30:58;;;;;;;53.63;24.35;;;;;;;0.59;67.87;101232.13;10188776;29;20084;-77
2023/01/29 14:36:05;;;;;;;47.13;22.38;;;;;;;0.54;67.22;101215.50;10188945;29;20388;-76
2023/01/29 14:41:22;;;;;;;40.08;17.38;;;;;;;0.43;67.56;101229.91;10205913;29;20499;-76
2023/01/29 14:46:44;;;;;;;42.05;18.13;;;;;;;0.30;68.04;101210.84;10202900;29;20476;-76
2023/01/29 14:51:48;;;;;;;48.33;22.42;;;;;;;0.40;67.88;101204.44;10210434;29;20133;-76
2023/01/29 14:56:59;;;;;;;52.70;22.90;;;;;;;0.24;68.16;101198.66;10211455;29;20459;-76
2023/01/29 15:02:12;;;;;;;39.75;17.35;;;;;;;0.08;68.57;101211.41;10203136;29;20052;-76
2023/01/29 15:07:25;;;;;;;44.58;18.90;;;;;;;0.04;69.07;101199.16;10204022;29;20044;-76
2023/01/29 15:12:36;;;;;;;39.80;17.13;;;;;;;0.22;68.88;101204.88;10206316;29;20079;-77
2023/01/29 15:17:49;;;;;;;57.58;23.95;;;;;;;0.24;68.53;101211.00;10197650;29;20067;-76
2023/01/29 15:22:52;;;;;;;41.70;15.40;;;;;;;0.01;69.46;101208.94;10209682;29;20098;-77
2023/01/29 15:27:58;;;;;;;63.63;25.48;;;;;;;0.29;68.91;101203.84;10207538;29;20159;-77
2023/01/29 15:33:02;;;;;;;32.60;13.90;;;;;;;0.08;69.31;101179.72;10199021;29;20052;-78
2023/01/29 15:38:14;;;;;;;39.20;20.13;;;;;;;0.03;69.65;101200.09;10174077;29;20108;-77
2023/01/29 15:43:24;;;;;;;39.37;17.00;;;;;;;-0.08;70.41;101192.41;10177034;29;20108;-77
2023/01/29 15:48:31;;;;;;;46.83;17.67;;;;;;;0.08;69.46;101185.00;10202531;29;20779;-77
2023/01/29 15:53:37;;;;;;;51.83;20.48;;;;;;;0.18;69.54;101180.31;10200420;29;20048;-76
2023/01/29 15:58:42;;;;;;;50.42;23.48;;;;;;;0.26;69.27;101166.91;10188470;29;20048;-77
2023/01/29 16:03:49;;;;;;;45.10;18.45;;;;;;;0.30;69.37;101156.25;10177044;29;20095;-77
2023/01/29 16:08:54;;;;;;;37.75;17.13;;;;;;;-0.18;70.16;101159.19;10177609;29;20431;-77
2023/01/29 16:13:59;;;;;;;33.25;15.85;;;;;;;0.31;69.44;101152.69;10187450;29;20099;-76
2023/01/29 16:19:13;;;;;;;38.67;17.98;;;;;;;-0.29;70.88;101140.97;10197089;29;20126;-77
2023/01/29 16:24:21;;;;;;;38.97;15.75;;;;;;;0.10;70.21;101140.88;10188860;29;20493;-75
2023/01/29 16:29:32;;;;;;;51.63;24.33;;;;;;;0.32;69.72;101122.69;10176388;29;20059;-75
2023/01/29 16:34:37;;;;;;;;;;;;;;;0.32;70.19;101121.81;10186227;29;20047;-77
2023/01/29 16:39:46;;;;;;;50.42;23.50;;;;;;;0.33;69.62;101121.81;10204856;29;19934;-77
2023/01/29 16:44:59;;;;;;;35.45;15.57;;;;;;;0.29;69.46;101103.41;10199629;29;20123;-77
2023/01/29 16:50:22;;;;;;;44.75;19.42;;;;;;;-0.06;71.01;101095.50;10197607;29;20074;-77
2023/01/29 16:55:26;;;;;;;30.67;14.52;;;;;;;-0.04;70.94;101094.59;10205472;29;20533;-77
2023/01/29 17:00:31;;;;;;;49.35;22.85;;;;;;;0.21;69.63;101085.09;10206524;29;20126;-77
2023/01/29 17:05:36;;;;;;;40.17;16.67;;;;;;;-0.10;70.87;101087.69;10207786;29;20427;-77
2023/01/29 17:10:46;;;;;;;58.50;23.40;;;;;;;0.53;69.03;101084.22;10208648;29;20043;-77
2023/01/29 17:15:50;;;;;;;33.20;15.88;;;;;;;0.27;69.30;101073.50;10212011;29;20039;-76
2023/01/29 17:20:53;;;;;;;34.20;15.35;;;;;;;0.20;69.23;101061.38;10213084;29;20047;-77
2023/01/29 17:25:56;;;;;;;41.10;17.60;;;;;;;0.24;69.22;101058.59;10212403;29;20048;-77
2023/01/29 17:31:00;;;;;;;41.25;15.18;;;;;;;0.22;68.89;101071.00;10183813;29;20103;-77
2023/01/29 17:36:12;;;;;;;41.42;18.80;;;;;;;0.31;69.84;101065.47;10194049;29;20036;-77
2023/01/29 17:41:21;;;;;;;47.10;20.85;;;;;;;0.17;70.71;101068.47;10202751;29;20043;-77
2023/01/29 17:46:26;;;;;;;45.05;20.50;;;;;;;0.09;71.72;101065.19;10197858;29;20047;-77
2023/01/29 17:51:29;;;;;;;41.40;18.70;;;;;;;0.13;73.18;101055.38;10189729;29;20051;-77
2023/01/29 17:56:31;;;;;;;55.65;27.27;;;;;;;-0.42;75.95;101060.31;10182697;29;20070;-77
2023/01/29 18:01:36;;;;;;;43.47;20.23;;;;;;;-0.18;77.34;101052.69;10208317;29;20072;-77
2023/01/29 18:06:41;;;;;;;51.25;21.13;;;;;;;-0.41;79.01;101033.03;10212475;29;20048;-75
2023/01/29 18:11:44;;;;;;;59.88;25.90;;;;;;;-0.51;81.60;101023.59;10216178;29;20048;-76
2023/01/29 18:16:48;;;;;;;66.93;29.95;;;;;;;-0.52;82.31;101004.25;10209293;29;20035;-76
2023/01/29 18:21:52;;;;;;;44.65;19.15;;;;;;;-0.40;82.27;101011.00;10199582;29;20264;-78
2023/01/29 18:26:55;;;;;;;64.57;26.98;;;;;;;-0.67;83.49;100999.34;10209667;29;20606;-78
2023/01/29 18:31:59;;;;;;;55.80;23.63;;;;;;;-0.75;84.37;100996.91;10213325;29;20391;-78
2023/01/29 18:37:02;;;;;;;56.92;24.15;;;;;;;-0.69;84.40;100987.97;10175758;29;20052;-76
2023/01/29 18:42:05;;;;;;;61.67;28.08;;;;;;;-0.54;84.16;100969.13;10187901;29;20128;-76
2023/01/29 18:47:09;;;;;;;57.25;25.60;;;;;;;-0.48;83.61;100962.81;10199804;29;20048;-75
2023/01/29 18:52:11;;;;;;;54.20;23.83;;;;;;;-0.36;83.50;100958.97;10206592;29;20476;-78
2023/01/29 18:57:14;;;;;;;65.68;30.92;;;;;;;-0.42;83.74;100952.09;10206307;29;20733;-77
2023/01/29 19:02:38;;;;;;;59.88;24.92;;;;;;;-0.47;83.85;100958.41;10211329;29;20530;-77
2023/01/29 19:07:41;;;;;;;50.75;22.95;;;;;;;-0.42;83.70;100925.69;10203139;29;20430;-77
2023/01/29 19:26:20;;;;;;;57.15;26.52;;;;;;;-0.54;84.99;100894.34;10184628;29;20500;-77
2023/01/29 19:38:10;;;;;;;45.58;23.15;;;;;;;-0.57;84.71;100883.88;10190638;29;20412;-76
2023/01/29 19:43:16;;;;;;;61.10;27.70;;;;;;;-0.43;84.63;100876.44;10206993;29;20044;-76
2023/01/29 19:48:20;;;;;;;54.67;25.85;;;;;;;-0.39;84.72;100864.88;10198452;29;20067;-76
2023/01/29 19:53:23;;;;;;;40.58;18.23;;;;;;;-0.11;83.24;100850.88;10191137;29;20054;-76
2023/01/29 19:58:29;;;;;;;56.70;25.55;;;;;;;-0.50;84.67;100853.75;10193731;29;20047;-76
2023/01/29 20:03:31;;;;;;;73.82;33.25;;;;;;;0.13;82.69;100829.03;10197584;28;20077;-76
2023/01/29 20:08:35;;;;;;;46.42;21.42;;;;;;;-0.40;84.01;100820.94;10168295;28;20139;-76
2023/01/29 20:13:39;;;;;;;36.38;16.35;;;;;;;-0.07;82.83;100810.28;10162445;28;20047;-76
2023/01/29 20:18:42;;;;;;;60.15;28.80;;;;;;;-0.12;82.83;100801.63;10168146;28;20419;-76
2023/01/29 20:23:45;;;;;;;52.42;22.10;;;;;;;0.01;81.70;100783.66;10170508;28;20082;-76
2023/01/29 20:28:49;;;;;;;45.10;21.38;;;;;;;-0.11;82.45;100771.66;10162589;28;20055;-76
2023/01/29 20:33:52;;;;;;;54.08;23.85;;;;;;;-0.04;82.35;100777.63;10163057;28;20055;-76
2023/01/29 20:38:54;;;;;;;40.28;20.05;;;;;;;-0.19;81.91;100779.84;10167424;28;20059;-76
2023/01/29 20:43:58;;;;;;;44.05;18.88;;;;;;;0.16;81.25;100764.66;10150879;28;20072;-76
2023/01/29 20:49:01;;;;;;;38.05;16.58;;;;;;;-0.16;81.50;100753.34;10150927;28;20052;-76
2023/01/29 20:54:04;;;;;;;26.83;11.32;;;;;;;-0.07;81.77;100746.91;10159179;28;20060;-76
2023/01/29 20:59:09;;;;;;;55.38;30.48;;;;;;;-0.28;81.93;100751.91;10150125;28;20158;-76
2023/01/29 21:04:12;;;;;;;45.72;20.98;;;;;;;0.17;81.85;100742.63;10150058;28;21404;-76
2023/01/29 21:09:14;;;;;;;49.92;22.88;;;;;;;0.11;81.42;100754.25;10161095;28;20055;-76
2023/01/29 21:14:19;;;;;;;52.47;23.42;;;;;;;0.06;81.71;100753.53;10134257;29;20082;-76
2023/01/29 21:19:22;;;;;;;41.30;19.90;;;;;;;0.11;80.88;100714.63;10159602;28;20059;-76
2023/01/29 21:24:25;;;;;;;37.60;16.27;;;;;;;0.09;81.02;100737.59;10150119;28;20257;-76
2023/01/29 21:29:30;;;;;;;50.72;23.13;;;;;;;0.14;81.91;100705.75;10157150;28;20051;-76
2023/01/29 21:34:33;;;;;;;47.35;20.52;;;;;;;0.43;80.42;100723.25;10159744;28;20079;-75
2023/01/29 21:39:36;;;;;;;44.03;20.85;;;;;;;0.24;80.97;100712.44;10165381;28;20134;-75
2023/01/29 21:44:40;;;;;;;28.50;15.48;;;;;;;-0.06;82.08;100714.28;10166744;28;20130;-75
2023/01/29 21:49:44;;;;;;;40.38;20.00;;;;;;;0.21;81.63;100730.16;10174103;28;20052;-76
2023/01/29 21:54:47;;;;;;;49.03;23.52;;;;;;;0.34;81.38;100718.28;10173147;28;21048;-76
2023/01/29 21:59:52;;;;;;;44.85;19.75;;;;;;;0.20;81.64;100683.53;10173914;28;20555;-76
2023/01/29 22:04:56;;;;;;;40.70;18.38;;;;;;;0.12;81.69;100689.06;10175394;28;20130;-76
2023/01/29 22:10:18;;;;;;;35.35;16.40;;;;;;;0.35;81.57;100691.78;10174101;28;20431;-76
2023/01/29 22:20:32;;;;;;;31.02;17.05;;;;;;;0.28;81.16;100698.22;10526596;27;20401;-75
2023/01/29 22:25:34;;;;;;;43.30;20.50;;;;;;;0.44;80.62;100689.75;10478348;28;20048;-75
2023/01/29 22:30:37;;;;;;;35.17;15.05;;;;;;;0.26;81.65;100691.25;10473640;28;20071;-76
2023/01/29 22:35:41;;;;;;;39.03;19.90;;;;;;;0.27;81.92;100675.31;10483703;28;20052;-76
2023/01/29 22:40:49;;;;;;;39.22;19.30;;;;;;;0.37;81.63;100673.25;10476122;28;20045;-76
2023/01/29 22:45:52;;;;;;;48.85;20.73;;;;;;;0.52;80.68;100661.28;10479998;28;20044;-76
2023/01/29 22:51:09;;;;;;;32.97;15.77;;;;;;;0.36;82.28;100639.81;10481982;28;20047;-76
2023/01/29 22:56:12;;;;;;;45.10;24.63;;;;;;;0.45;80.67;100630.69;10462782;28;20037;-77
2023/01/29 23:01:18;;;;;;;39.03;19.20;;;;;;;0.44;80.97;100631.59;10487022;28;20072;-78
2023/01/29 23:06:23;;;;;;;52.85;23.83;;;;;;;0.60;81.21;100591.38;10485338;28;20087;-76
2023/01/29 23:11:26;;;;;;;37.53;17.83;;;;;;;0.67;81.38;100522.41;10498447;28;20102;-77
2023/01/29 23:16:29;;;;;;;37.30;18.70;;;;;;;0.51;81.00;100501.81;10494466;28;20048;-78
2023/01/29 23:21:33;;;;;;;44.25;16.70;;;;;;;0.68;81.19;100480.00;10469910;28;20037;-78
2023/01/29 23:31:56;;;;;;;53.72;24.95;;;;;;;0.82;81.28;100512.09;10456918;28;20104;-78
2023/01/29 23:37:00;;;;;;;39.70;18.52;;;;;;;0.79;80.55;100554.50;10457727;28;20494;-78
2023/01/29 23:42:03;;;;;;;48.67;19.90;;;;;;;1.13;80.24;100473.84;10450684;28;20049;-78
2023/01/29 23:47:06;;;;;;;50.80;22.35;;;;;;;0.99;81.52;100508.78;10459376;28;20037;-78
2023/01/29 23:52:10;;;;;;;43.20;20.40;;;;;;;0.95;81.73;100493.09;10464577;28;20041;-78
2023/01/29 23:57:13;;;;;;;56.53;24.70;;;;;;;1.06;81.26;100438.81;10444896;28;20033;-79
